Overview Statistics Trail Chart Weather Telemetry Raw packets
 

This is the latest recevied weather packets stored in our database for station/object VU3OPX-13. If no packets are shown the sender has not sent any weather packets the latest 10 day(s).

<< 7 8 9 10 11 12 13 >>
Time Temp. Humidity Pressure Rain* Wind** Luminosity Snow
1788002396 24.44° C 77% 1010 hPa 0 mm - - -
1788000608 25° C 76% 1010 hPa 0 mm - - -
1787998821 25.56° C 73% 1010 hPa 0 mm - - -
1787995144 26.11° C 71% 1010 hPa 0 mm - - -
1787993356 26.11° C 70% 1010 hPa 0 mm - - -
1787991568 26.67° C 70% 1011 hPa 0 mm - - -
1787989781 26.67° C 70% 1011 hPa 0 mm - - -
1787980872 25.56° C 73% 1012 hPa 0 mm - - -
1787979084 25.56° C 72% 1012 hPa 0 mm - - -
1787977297 25° C 75% 1012 hPa 0 mm - - -
1787975510 25° C 75% 1012 hPa 0 mm - - -
1787973722 23.89° C 80% 1012 hPa 0 mm - - -
1787971935 23.89° C 79% 1012 hPa 0 mm - - -
1787970148 22.78° C 86% 1011 hPa 0 mm - - -
1787968360 22.78° C 87% 1011 hPa 0 mm - - -
1787966573 21.67° C 91% 1011 hPa 0 mm - - -
1787964786 21.67° C 91% 1011 hPa 0 mm - - -
1787962998 21.67° C 90% 1010 hPa 0 mm - - -
1787961212 21.67° C 90% 1010 hPa 0 mm - - -
1787957754 21.67° C 91% 1010 hPa 0 mm - - -
1787955966 21.11° C 91% 1010 hPa 0 mm - - -
1787954179 21.11° C 91% 1010 hPa 0 mm - - -
1787952392 21.67° C 91% 1010 hPa 0 mm - - -
1787949463 21.67° C 91% 1010 hPa 0 mm - - -
1787947677 21.67° C 92% 1011 hPa 0 mm - - -

* Rain latest hour (hover to see other rain measurements)
** Current wind speed in m/s (hover to see current wind gust speed)